Malatya/Erhac, Turkey
Current Conditions -  °F | °C
As of 1:20 AM on Tuesday 27 Jan 2015 (Local Time) from LTAT Reporting Station
Few Clouds Few Clouds  
Wind Chill: -5°   Ceiling: Unl
Heat Index: -5°   Visibility: 4mi
Dew Point: -5°   Wind: 3mph
Humidity: 100%   Direction: 230°SW
Pressure: 30.15"   Gusts: NA
Location:  38.43°N, 38.08°E
Report Text: LTAT 262220Z 23003KT 200V280 6000 FEW030 M05/M05 Q1021 NOSIG
Loading
Personal Weather Stations






























Interactive Weather Map New forecast layout! Learn more

10-Day Weather Forecast

Advertisements
Track Severe Weather on mobile